createdAt,value
2023-03-18T00:01:31.396Z,11.25
2023-03-18T00:03:58.515Z,10.90
2023-03-18T00:06:26.214Z,10.52
2023-03-18T00:08:53.310Z,21.20
2023-03-18T00:11:21.516Z,15.80
2023-03-18T00:13:49.172Z,15.73
2023-03-18T00:16:16.780Z,14.82
2023-03-18T00:18:44.591Z,13.57
2023-03-18T00:21:12.231Z,14.27
2023-03-18T00:23:39.846Z,10.75
2023-03-18T00:26:08.917Z,11.40
2023-03-18T00:28:37.436Z,11.40
2023-03-18T00:31:08.990Z,13.85
2023-03-18T00:33:38.187Z,13.30
2023-03-18T00:36:06.515Z,17.58
2023-03-18T00:38:35.576Z,12.63
2023-03-18T00:41:11.589Z,12.75
2023-03-18T00:43:52.192Z,13.65
2023-03-18T00:46:26.082Z,12.05
2023-03-18T00:48:55.690Z,14.90
2023-03-18T00:51:25.132Z,16.10
2023-03-18T00:53:55.344Z,14.88
2023-03-18T00:56:25.494Z,16.90
2023-03-18T00:58:54.152Z,13.05
2023-03-18T01:01:22.151Z,14.35
2023-03-18T01:03:50.173Z,15.20
2023-03-18T01:06:22.637Z,15.82
2023-03-18T01:08:50.663Z,14.77
2023-03-18T01:11:18.488Z,11.90
2023-03-18T01:13:46.194Z,14.38
2023-03-18T01:16:14.258Z,11.82
2023-03-18T01:18:42.324Z,16.60
2023-03-18T01:21:10.248Z,15.77
2023-03-18T01:23:38.215Z,12.82
2023-03-18T01:26:06.307Z,14.10
2023-03-18T01:28:33.627Z,13.88
2023-03-18T01:31:04.607Z,13.55
2023-03-18T01:33:31.787Z,15.40
2023-03-18T01:36:02.337Z,13.70
2023-03-18T01:38:32.575Z,15.93
2023-03-18T01:41:01.204Z,16.50
2023-03-18T01:43:36.806Z,14.45
2023-03-18T01:46:29.672Z,16.58
2023-03-18T01:48:57.343Z,15.35
2023-03-18T01:51:26.794Z,11.70
2023-03-18T01:53:57.544Z,11.55
2023-03-18T01:56:25.012Z,13.93
2023-03-18T01:58:55.358Z,16.58
2023-03-18T02:01:27.785Z,12.77
2023-03-18T02:03:55.543Z,14.77
2023-03-18T02:06:23.854Z,12.63
2023-03-18T02:08:51.003Z,14.02
2023-03-18T02:11:18.024Z,16.42
2023-03-18T02:13:46.776Z,17.17
2023-03-18T02:16:57.317Z,20.17
2023-03-18T02:19:37.147Z,18.55
2023-03-18T02:22:16.175Z,14.38
2023-03-18T02:25:14.036Z,13.65
2023-03-18T02:27:47.195Z,17.90
2023-03-18T02:30:18.940Z,18.48
2023-03-18T02:32:48.625Z,18.02
2023-03-18T02:35:15.822Z,21.67
2023-03-18T02:37:43.124Z,19.25
2023-03-18T02:40:13.147Z,16.98
2023-03-18T02:42:40.151Z,18.58
2023-03-18T02:45:17.263Z,20.33
2023-03-18T02:47:45.632Z,15.57
2023-03-18T02:50:12.886Z,19.50
2023-03-18T02:52:40.075Z,16.60
2023-03-18T02:55:08.007Z,15.40
2023-03-18T02:57:35.045Z,17.63
2023-03-18T03:00:02.112Z,15.43
2023-03-18T03:02:29.833Z,16.30
2023-03-18T03:04:57.453Z,17.75
2023-03-18T03:07:27.826Z,18.25
2023-03-18T03:09:54.875Z,22.02
2023-03-18T03:12:22.034Z,19.50
2023-03-18T03:14:49.037Z,16.92
2023-03-18T03:17:16.527Z,20.58
2023-03-18T03:19:45.833Z,20.58
2023-03-18T03:22:12.985Z,18.13
2023-03-18T03:24:40.125Z,23.38
2023-03-18T03:27:07.625Z,19.00
2023-03-18T03:29:34.783Z,21.92
2023-03-18T03:32:02.128Z,18.13
2023-03-18T03:34:30.428Z,21.98
2023-03-18T03:36:57.435Z,16.33
2023-03-18T03:39:24.599Z,18.48
2023-03-18T03:41:52.821Z,20.90
2023-03-18T03:44:20.185Z,17.50
2023-03-18T03:46:48.574Z,18.02
2023-03-18T03:49:16.951Z,19.02
2023-03-18T03:51:44.006Z,16.48
2023-03-18T03:54:13.234Z,16.35
2023-03-18T03:56:41.002Z,17.08
2023-03-18T03:59:08.435Z,23.92
2023-03-18T04:01:35.764Z,20.05
2023-03-18T04:04:04.024Z,21.05
2023-03-18T04:06:31.697Z,17.42
2023-03-18T04:08:58.860Z,20.25
2023-03-18T04:11:25.987Z,15.85
2023-03-18T04:13:53.108Z,18.63
2023-03-18T04:16:20.268Z,17.63
2023-03-18T04:18:47.557Z,18.55
2023-03-18T04:21:14.971Z,21.35
2023-03-18T04:23:42.308Z,19.67
2023-03-18T04:26:09.381Z,21.60
2023-03-18T04:28:36.475Z,17.38
2023-03-18T04:31:03.549Z,16.70
2023-03-18T04:33:32.096Z,18.65
2023-03-18T04:35:59.378Z,20.27
2023-03-18T04:38:28.296Z,16.08
2023-03-18T04:40:55.380Z,20.95
2023-03-18T04:43:22.832Z,17.83
2023-03-18T04:45:50.200Z,20.02
2023-03-18T04:48:18.197Z,17.05
2023-03-18T04:50:46.056Z,15.15
2023-03-18T04:53:13.253Z,19.30
2023-03-18T04:55:40.722Z,20.48
2023-03-18T04:58:08.351Z,23.45
2023-03-18T05:00:35.621Z,20.23
2023-03-18T05:03:03.666Z,19.95
2023-03-18T05:05:31.352Z,22.20
2023-03-18T05:07:58.525Z,17.92
2023-03-18T05:10:25.585Z,17.30
2023-03-18T05:12:52.759Z,19.00
2023-03-18T05:15:20.193Z,19.25
2023-03-18T05:17:47.631Z,22.42
2023-03-18T05:20:14.837Z,17.88
2023-03-18T05:22:42.072Z,18.85
2023-03-18T05:25:11.526Z,23.92
2023-03-18T05:27:38.785Z,20.40
2023-03-18T05:30:06.553Z,22.10
2023-03-18T05:32:33.705Z,20.08
2023-03-18T05:35:00.937Z,18.02
2023-03-18T05:37:28.055Z,25.52
2023-03-18T05:39:55.239Z,18.58
2023-03-18T05:42:23.385Z,23.73
2023-03-18T05:44:50.716Z,16.05
2023-03-18T05:47:18.002Z,21.23
2023-03-18T05:49:45.098Z,19.45
2023-03-18T05:52:12.320Z,24.10
2023-03-18T05:54:39.612Z,16.33
2023-03-18T05:57:07.417Z,23.90
2023-03-18T05:59:34.838Z,18.90
2023-03-18T06:02:02.221Z,18.67
2023-03-18T06:04:30.420Z,21.30
2023-03-18T06:06:58.259Z,20.83
2023-03-18T06:09:25.892Z,15.93
2023-03-18T06:11:52.995Z,19.50
2023-03-18T06:14:20.193Z,21.95
2023-03-18T06:16:47.337Z,20.10
2023-03-18T06:19:14.514Z,21.40
2023-03-18T06:21:41.661Z,23.80
2023-03-18T06:24:09.644Z,21.25
2023-03-18T06:26:36.826Z,19.77
2023-03-18T06:29:05.289Z,18.83
2023-03-18T06:31:33.817Z,20.92
2023-03-18T06:34:01.580Z,17.15
2023-03-18T06:36:29.584Z,19.95
2023-03-18T06:38:56.751Z,17.50
2023-03-18T06:41:23.855Z,18.35
2023-03-18T06:43:52.302Z,27.98
2023-03-18T06:46:19.477Z,17.73
2023-03-18T06:48:46.695Z,24.13
2023-03-18T06:51:13.770Z,21.38
2023-03-18T06:53:41.995Z,29.23
2023-03-18T06:56:09.960Z,20.67
2023-03-18T06:58:37.734Z,20.67
2023-03-18T07:01:05.091Z,23.20
2023-03-18T07:03:32.923Z,22.10
2023-03-18T07:06:01.115Z,18.85
2023-03-18T07:08:30.092Z,19.42
2023-03-18T07:10:57.789Z,16.45
2023-03-18T07:13:25.257Z,20.92
2023-03-18T07:15:52.409Z,17.77
2023-03-18T07:18:19.641Z,20.58
2023-03-18T07:20:46.682Z,23.60
2023-03-18T07:23:14.036Z,28.88
2023-03-18T07:25:42.068Z,23.58
2023-03-18T07:28:09.240Z,24.13
2023-03-18T07:30:36.525Z,19.30
2023-03-18T07:33:04.596Z,20.83
2023-03-18T07:35:32.286Z,18.27
2023-03-18T07:38:00.981Z,18.70
2023-03-18T07:40:28.218Z,21.13
2023-03-18T07:42:55.710Z,21.85
2023-03-18T07:45:22.807Z,24.42
2023-03-18T07:47:50.151Z,25.23
2023-03-18T07:50:18.422Z,25.10
2023-03-18T07:52:45.501Z,25.42
2023-03-18T07:55:12.589Z,20.80
2023-03-18T07:57:40.735Z,23.90
2023-03-18T08:00:10.531Z,23.17
2023-03-18T08:02:37.924Z,25.85
2023-03-18T08:05:06.929Z,25.77
2023-03-18T08:07:35.586Z,24.88
2023-03-18T08:10:02.722Z,22.73
2023-03-18T08:12:45.310Z,22.88
2023-03-18T08:15:16.455Z,27.52
2023-03-18T08:17:43.612Z,19.63
2023-03-18T08:20:12.237Z,23.90
2023-03-18T08:22:39.271Z,23.83
2023-03-18T08:25:06.668Z,25.73
2023-03-18T08:27:33.924Z,31.33
2023-03-18T08:30:03.510Z,20.30
2023-03-18T08:32:30.983Z,22.63
2023-03-18T08:34:58.209Z,27.33
2023-03-18T08:37:25.937Z,17.63
2023-03-18T08:39:52.996Z,30.33
2023-03-18T08:42:20.864Z,24.17
2023-03-18T08:44:48.868Z,23.52
2023-03-18T08:47:16.003Z,21.55
2023-03-18T08:49:43.084Z,30.00
2023-03-18T08:52:10.562Z,15.40
2023-03-18T08:54:37.910Z,13.30
2023-03-18T08:57:05.141Z,14.40
2023-03-18T08:59:32.527Z,16.23
2023-03-18T09:02:00.451Z,13.73
2023-03-18T09:04:27.479Z,15.15
2023-03-18T09:06:54.709Z,19.48
2023-03-18T09:09:26.271Z,17.27
2023-03-18T09:11:58.281Z,18.33
2023-03-18T09:14:26.407Z,14.88
2023-03-18T09:16:54.750Z,18.35
2023-03-18T09:19:21.998Z,18.30
2023-03-18T09:21:49.209Z,15.57
2023-03-18T09:24:16.480Z,16.30
2023-03-18T09:26:43.736Z,13.73
2023-03-18T09:29:11.261Z,18.73
2023-03-18T09:31:38.652Z,21.58
2023-03-18T09:34:06.123Z,16.88
2023-03-18T09:36:33.809Z,17.50
2023-03-18T09:39:01.034Z,16.25
2023-03-18T09:41:44.150Z,18.65
2023-03-18T09:44:24.249Z,14.40
2023-03-18T09:47:29.360Z,21.13
2023-03-18T09:50:15.888Z,17.90
2023-03-18T09:52:49.318Z,19.00
2023-03-18T09:55:40.217Z,14.55
2023-03-18T09:58:23.412Z,19.33
2023-03-18T10:00:57.120Z,18.47
2023-03-18T10:06:06.780Z,15.82
2023-03-18T10:09:01.183Z,18.30
2023-03-18T10:14:08.993Z,15.40
2023-03-18T10:16:48.945Z,12.43
2023-03-18T10:19:16.149Z,17.55
2023-03-18T10:22:06.231Z,11.10
2023-03-18T10:24:35.923Z,11.68
2023-03-18T10:27:15.290Z,13.13
2023-03-18T10:29:46.991Z,10.02
2023-03-18T10:32:49.065Z,16.00
2023-03-18T10:35:31.786Z,13.85
2023-03-18T10:38:17.985Z,15.10
2023-03-18T10:40:47.503Z,13.20
2023-03-18T10:43:25.120Z,11.20
2023-03-18T10:46:11.843Z,16.95
2023-03-18T10:48:49.995Z,14.05
2023-03-18T10:51:34.502Z,10.93
2023-03-18T10:54:19.192Z,12.00
2023-03-18T10:56:46.622Z,11.27
2023-03-18T10:59:18.126Z,11.65
2023-03-18T11:01:51.396Z,12.23
2023-03-18T11:07:14.923Z,10.32
2023-03-18T11:09:42.482Z,10.10
2023-03-18T11:12:18.942Z,7.95
2023-03-18T11:14:49.171Z,5.47
2023-03-18T11:17:33.162Z,5.70
2023-03-18T11:22:33.155Z,7.70
2023-03-18T11:25:13.902Z,8.25
2023-03-18T11:27:45.704Z,11.15
2023-03-18T11:30:34.654Z,7.60
2023-03-18T11:33:11.741Z,10.45
2023-03-18T11:36:01.053Z,7.72
2023-03-18T11:38:31.749Z,9.25
2023-03-18T11:41:09.212Z,8.38
2023-03-18T11:43:38.043Z,8.02
2023-03-18T11:46:09.482Z,6.60
2023-03-18T11:48:39.741Z,5.57
2023-03-18T11:51:25.204Z,6.55
2023-03-18T11:54:09.540Z,10.48
2023-03-18T11:56:55.526Z,10.13
2023-03-18T11:59:34.966Z,9.98
2023-03-18T12:02:18.587Z,7.05
2023-03-18T12:05:16.770Z,7.03
2023-03-18T12:08:09.978Z,12.15
2023-03-18T12:10:47.058Z,6.85
2023-03-18T12:13:32.738Z,5.85
2023-03-18T12:16:43.598Z,8.32
2023-03-18T12:19:41.790Z,7.57
2023-03-18T12:22:47.616Z,6.43
2023-03-18T12:25:23.959Z,6.50
2023-03-18T12:28:09.070Z,9.40
2023-03-18T12:30:53.873Z,6.38
2023-03-18T12:33:31.615Z,8.95
2023-03-18T12:36:12.478Z,9.70
2023-03-18T12:39:02.457Z,6.18
2023-03-18T12:41:41.041Z,5.97
2023-03-18T12:44:46.595Z,6.55
2023-03-18T12:47:37.146Z,8.57
2023-03-18T12:50:21.070Z,9.35
2023-03-18T12:53:17.174Z,5.13
2023-03-18T12:55:48.181Z,8.32
2023-03-18T12:58:23.233Z,6.75
2023-03-18T13:01:06.865Z,8.88
2023-03-18T13:03:36.063Z,5.85
2023-03-18T13:06:10.107Z,5.65
2023-03-18T13:09:16.601Z,7.55
2023-03-18T13:11:50.818Z,7.38
2023-03-18T13:15:08.204Z,5.15
2023-03-18T13:17:41.676Z,7.13
2023-03-18T13:20:23.851Z,8.65
2023-03-18T13:23:05.777Z,5.28
2023-03-18T13:25:49.485Z,6.47
2023-03-18T13:28:36.827Z,7.40
2023-03-18T13:31:14.306Z,8.48
2023-03-18T13:34:00.509Z,7.68
2023-03-18T13:36:41.635Z,7.13
2023-03-18T13:39:33.571Z,7.43
2023-03-18T13:42:18.248Z,9.75
2023-03-18T13:44:55.438Z,9.18
2023-03-18T13:47:23.721Z,7.63
2023-03-18T13:50:01.106Z,6.57
2023-03-18T13:52:40.841Z,8.35
2023-03-18T13:55:33.067Z,6.53
2023-03-18T13:58:13.590Z,9.07
2023-03-18T14:00:46.253Z,10.95
2023-03-18T14:03:18.150Z,10.43
2023-03-18T14:05:47.258Z,8.43
2023-03-18T14:08:38.972Z,7.55
2023-03-18T14:11:23.135Z,8.82
2023-03-18T14:13:56.551Z,11.13
2023-03-18T14:19:24.168Z,7.15
2023-03-18T14:21:53.510Z,7.32
2023-03-18T14:24:24.493Z,8.73
2023-03-18T14:27:03.646Z,6.93
2023-03-18T14:29:36.564Z,5.20
2023-03-18T14:32:08.467Z,4.32
2023-03-18T14:34:59.592Z,4.63
2023-03-18T14:37:30.619Z,5.70
2023-03-18T14:40:12.608Z,4.72
2023-03-18T14:42:53.799Z,5.10
2023-03-18T14:45:36.194Z,2.88
2023-03-18T14:48:12.092Z,2.88
2023-03-18T14:50:47.721Z,3.53
2023-03-18T14:53:30.612Z,2.50
2023-03-18T14:55:59.843Z,4.55
2023-03-18T14:58:28.592Z,2.40
2023-03-18T15:01:06.638Z,4.15
2023-03-18T15:03:34.465Z,5.03
2023-03-18T15:06:04.894Z,4.93
2023-03-18T15:08:47.321Z,6.68
2023-03-18T15:11:16.870Z,4.07
2023-03-18T15:13:44.860Z,3.47
2023-03-18T15:16:17.122Z,5.90
2023-03-18T15:18:44.500Z,3.05
2023-03-18T15:21:22.478Z,3.33
2023-03-18T15:23:55.705Z,4.30
2023-03-18T15:26:25.433Z,2.05
2023-03-18T15:29:02.054Z,3.65
2023-03-18T15:31:41.203Z,3.45
2023-03-18T15:34:30.690Z,3.30
2023-03-18T15:37:00.983Z,2.30
2023-03-18T15:39:32.501Z,2.95
2023-03-18T15:42:02.235Z,4.10
2023-03-18T15:44:32.245Z,3.13
2023-03-18T15:47:24.046Z,3.10
2023-03-18T15:49:57.661Z,3.38
2023-03-18T15:54:53.677Z,5.18
2023-03-18T15:57:31.995Z,2.92
2023-03-18T15:59:59.394Z,1.80
2023-03-18T16:02:27.473Z,5.72
2023-03-18T16:05:16.652Z,4.53
2023-03-18T16:07:43.847Z,5.72
2023-03-18T16:10:11.573Z,2.78
2023-03-18T16:12:39.582Z,3.60
2023-03-18T16:15:07.787Z,2.72
2023-03-18T16:17:34.853Z,2.75
2023-03-18T16:20:04.252Z,6.57
2023-03-18T16:22:33.677Z,3.80
2023-03-18T16:25:01.157Z,3.38
2023-03-18T16:27:34.798Z,3.95
2023-03-18T16:32:29.526Z,2.55
2023-03-18T16:34:56.599Z,4.43
2023-03-18T16:37:27.757Z,2.63
2023-03-18T16:39:55.816Z,8.65
2023-03-18T16:42:25.800Z,4.13
2023-03-18T16:44:53.244Z,4.63
2023-03-18T16:47:25.398Z,8.20
2023-03-18T16:49:53.102Z,3.88
2023-03-18T16:52:20.202Z,6.90
2023-03-18T16:54:47.305Z,1.98
2023-03-18T16:57:18.782Z,3.13
2023-03-18T16:59:50.850Z,2.15
2023-03-18T17:02:35.810Z,2.20
2023-03-18T17:05:03.109Z,2.08
2023-03-18T17:07:31.223Z,2.22
2023-03-18T17:09:58.477Z,3.38
2023-03-18T17:12:26.207Z,2.17
2023-03-18T17:14:57.373Z,2.38
2023-03-18T17:17:29.825Z,2.08
2023-03-18T17:19:59.768Z,3.40
2023-03-18T17:22:29.622Z,5.25
2023-03-18T17:24:57.283Z,3.50
2023-03-18T17:27:31.992Z,5.97
2023-03-18T17:29:59.767Z,3.08
2023-03-18T17:32:27.320Z,4.47
2023-03-18T17:34:54.805Z,3.70
2023-03-18T17:37:23.442Z,3.28
2023-03-18T17:39:50.596Z,4.20
2023-03-18T17:42:30.552Z,6.75
2023-03-18T17:45:05.627Z,4.55
2023-03-18T17:47:32.864Z,5.72
2023-03-18T17:50:00.931Z,6.25
2023-03-18T17:52:28.035Z,4.97
2023-03-18T17:54:55.677Z,4.32
2023-03-18T17:57:23.160Z,5.55
2023-03-18T17:59:51.570Z,7.38
2023-03-18T18:02:20.364Z,7.20
2023-03-18T18:04:47.489Z,9.43
2023-03-18T18:07:19.573Z,4.90
2023-03-18T18:09:46.938Z,4.07
2023-03-18T18:12:22.060Z,8.93
2023-03-18T18:14:49.907Z,5.20
2023-03-18T18:17:17.236Z,4.78
2023-03-18T18:19:44.606Z,4.25
2023-03-18T18:22:17.871Z,5.07
2023-03-18T18:24:47.016Z,5.20
2023-03-18T18:27:15.350Z,6.38
2023-03-18T18:29:46.052Z,5.97
2023-03-18T18:32:13.254Z,6.85
2023-03-18T18:34:40.603Z,7.35
2023-03-18T18:37:08.132Z,6.70
2023-03-18T18:39:35.270Z,10.40
2023-03-18T18:42:04.573Z,9.75
2023-03-18T18:44:31.779Z,14.43
2023-03-18T18:46:59.461Z,9.35
2023-03-18T18:49:26.615Z,8.82
2023-03-18T18:51:55.564Z,8.73
2023-03-18T18:54:24.449Z,10.70
2023-03-18T18:56:52.362Z,7.90
2023-03-18T18:59:27.032Z,7.95
2023-03-18T19:01:55.563Z,9.50
2023-03-18T19:04:23.998Z,11.35
2023-03-18T19:06:52.454Z,10.20
2023-03-18T19:09:24.574Z,9.07
2023-03-18T19:11:53.279Z,8.80
2023-03-18T19:14:24.592Z,10.32
2023-03-18T19:16:53.739Z,10.40
2023-03-18T19:19:24.707Z,7.13
2023-03-18T19:21:52.146Z,10.65
2023-03-18T19:24:32.670Z,6.07
2023-03-18T19:27:05.778Z,5.82
2023-03-18T19:29:33.324Z,11.38
2023-03-18T19:32:03.882Z,8.40
2023-03-18T19:34:32.524Z,5.70
2023-03-18T19:37:05.691Z,8.80
2023-03-18T19:39:32.764Z,8.02
2023-03-18T19:42:00.604Z,7.20
2023-03-18T19:44:27.786Z,8.57
2023-03-18T19:46:59.535Z,7.72
2023-03-18T19:49:33.664Z,10.00
2023-03-18T19:52:02.624Z,13.20
2023-03-18T19:54:32.729Z,8.30
2023-03-18T19:57:03.335Z,8.85
2023-03-18T19:59:38.769Z,7.85
2023-03-18T20:02:34.422Z,9.60
2023-03-18T20:05:04.517Z,10.52
2023-03-18T20:07:32.804Z,7.45
2023-03-18T20:10:02.934Z,4.60
2023-03-18T20:12:41.035Z,5.22
2023-03-18T20:15:17.771Z,4.13
2023-03-18T20:17:46.773Z,4.22
2023-03-18T20:20:23.514Z,3.65
2023-03-18T20:23:03.365Z,2.72
2023-03-18T20:25:36.168Z,3.83
2023-03-18T20:28:04.827Z,2.53
2023-03-18T20:30:34.235Z,6.68
2023-03-18T20:33:05.078Z,5.22
2023-03-18T20:35:35.785Z,3.15
2023-03-18T20:38:24.693Z,2.50
2023-03-18T20:40:51.784Z,2.40
2023-03-18T20:43:21.814Z,3.85
2023-03-18T20:45:51.459Z,0.90
2023-03-18T20:48:19.314Z,3.78
2023-03-18T20:50:46.815Z,0.82
2023-03-18T20:53:21.863Z,1.05
2023-03-18T20:55:49.673Z,1.23
2023-03-18T20:58:21.878Z,1.80
2023-03-18T21:00:49.346Z,2.47
2023-03-18T21:03:29.552Z,0.90
2023-03-18T21:06:00.393Z,1.75
2023-03-18T21:08:28.094Z,1.77
2023-03-18T21:10:56.669Z,2.17
2023-03-18T21:13:36.171Z,2.78
2023-03-18T21:16:07.991Z,3.95
2023-03-18T21:18:35.608Z,1.98
2023-03-18T21:21:02.759Z,3.33
2023-03-18T21:23:34.618Z,1.70
2023-03-18T21:26:01.940Z,1.23
2023-03-18T21:28:30.350Z,1.73
2023-03-18T21:30:58.604Z,0.30
2023-03-18T21:33:32.444Z,0.75
2023-03-18T21:36:01.367Z,2.40
2023-03-18T21:38:32.557Z,3.28
2023-03-18T21:41:01.340Z,0.57
2023-03-18T21:43:33.525Z,0.20
2023-03-18T21:46:01.842Z,0.95
2023-03-18T21:48:29.545Z,1.52
2023-03-18T21:50:56.668Z,1.92
2023-03-18T21:53:24.949Z,0.60
2023-03-18T21:55:52.291Z,1.15
2023-03-18T21:58:27.194Z,1.70
2023-03-18T22:00:58.104Z,0.65
2023-03-18T22:03:28.016Z,0.88
2023-03-18T22:05:56.394Z,0.85
2023-03-18T22:08:24.254Z,1.50
2023-03-18T22:10:52.335Z,1.27
2023-03-18T22:13:20.844Z,0.80
2023-03-18T22:15:49.736Z,1.65
2023-03-18T22:18:17.135Z,1.90
2023-03-18T22:20:46.284Z,1.85
2023-03-18T22:23:35.725Z,1.35
2023-03-18T22:26:03.692Z,1.23
2023-03-18T22:28:32.477Z,1.08
2023-03-18T22:31:03.155Z,3.20
2023-03-18T22:33:33.214Z,1.65
2023-03-18T22:36:01.170Z,1.67
2023-03-18T22:38:28.492Z,2.42
2023-03-18T22:40:57.151Z,2.70
2023-03-18T22:43:27.640Z,1.35
2023-03-18T22:45:54.840Z,1.48
2023-03-18T22:48:22.275Z,2.17
2023-03-18T22:50:49.717Z,1.88
2023-03-18T22:53:27.071Z,2.03
2023-03-18T22:55:56.119Z,2.25
2023-03-18T22:58:26.417Z,0.95
2023-03-18T23:00:55.072Z,1.95
2023-03-18T23:03:26.492Z,2.80
2023-03-18T23:05:55.297Z,1.70
2023-03-18T23:08:23.056Z,2.30
2023-03-18T23:10:52.526Z,1.17
2023-03-18T23:13:19.586Z,2.75
2023-03-18T23:15:46.717Z,1.38
2023-03-18T23:18:15.867Z,2.08
2023-03-18T23:20:44.624Z,2.67
2023-03-18T23:23:12.563Z,1.48
2023-03-18T23:25:41.065Z,2.78
2023-03-18T23:28:08.308Z,1.63
2023-03-18T23:30:39.209Z,2.25
2023-03-18T23:33:07.304Z,6.55
2023-03-18T23:35:35.070Z,3.38
2023-03-18T23:38:02.470Z,2.70
2023-03-18T23:40:30.297Z,2.75
2023-03-18T23:42:57.323Z,1.20
2023-03-18T23:45:28.029Z,1.98
2023-03-18T23:47:55.900Z,2.95
2023-03-18T23:50:23.545Z,1.58
2023-03-18T23:52:50.689Z,2.58
2023-03-18T23:55:33.575Z,1.88
2023-03-18T23:58:01.002Z,2.67
